Location Greenlaw, NA, UK

ob NPTOHCUK 221500Z AUTO 19011G17KT CLR CLR 08/03 A2947 RMK SLPNO 

2017.02.22 1500 UTC
Wind from the S (194 degrees) at 13 MPH (11 KT) gusting to 20 MPH (17 KT)
Visibility    Mile(s)
Weather: CLR
Sky Conditions  clear
Temperature 46.0 F (8 C)
Dew Point 37.1 F (3 C)
Relative Humidity 71%
Pressure   29.474 in. Hg (998 hPa)
Rain  0.00 in.
Daily Rain  in.

Station Name  New Palace Theatre Organ Heritage Centre
Longitude, Latitude  -2.463611, 55.706389
Elevation 525
Station URL http://www.nptohc.co.uk/weather
Software Type WeatherDisplay:10.37P